sensor_id;sensor_type;location;lat;lon;timestamp;pressure;altitude;pressure_sealevel;temperature;humidity
35224;BME280;21367;51.930;8.112;2022-09-09T00:04:41;100235.00;;;15.57;92.86
35224;BME280;21367;51.930;8.112;2022-09-09T00:09:46;100236.25;;;15.82;91.25
35224;BME280;21367;51.930;8.112;2022-09-09T00:14:55;100241.44;;;15.81;92.04
35224;BME280;21367;51.930;8.112;2022-09-09T00:20:02;100244.16;;;15.91;91.27
35224;BME280;21367;51.930;8.112;2022-09-09T00:25:16;100238.84;;;15.81;91.46
35224;BME280;21367;51.930;8.112;2022-09-09T00:30:27;100236.41;;;15.93;91.03
35224;BME280;21367;51.930;8.112;2022-09-09T00:35:37;100230.53;;;16.08;90.56
35224;BME280;21367;51.930;8.112;2022-09-09T00:40:49;100227.03;;;16.03;92.84
35224;BME280;21367;51.930;8.112;2022-09-09T00:51:36;100216.41;;;15.83;96.26
35224;BME280;21367;51.930;8.112;2022-09-09T00:56:47;100220.69;;;15.81;95.81
35224;BME280;21367;51.930;8.112;2022-09-09T01:01:59;100218.22;;;15.91;97.14
35224;BME280;21367;51.930;8.112;2022-09-09T01:07:08;100218.09;;;15.82;98.04
35224;BME280;21367;51.930;8.112;2022-09-09T01:12:23;100216.97;;;15.62;99.49
35224;BME280;21367;51.930;8.112;2022-09-09T01:17:44;100210.25;;;15.75;99.70
35224;BME280;21367;51.930;8.112;2022-09-09T01:23:02;100210.91;;;15.63;100.00
35224;BME280;21367;51.930;8.112;2022-09-09T01:28:21;100215.19;;;15.59;100.00
35224;BME280;21367;51.930;8.112;2022-09-09T01:39:35;100214.28;;;15.56;100.00
35224;BME280;21367;51.930;8.112;2022-09-09T01:44:46;100214.09;;;15.43;100.00
35224;BME280;21367;51.930;8.112;2022-09-09T01:49:50;100215.75;;;15.37;100.00
35224;BME280;21367;51.930;8.112;2022-09-09T01:54:58;100227.88;;;15.41;100.00
35224;BME280;21367;51.930;8.112;2022-09-09T02:00:13;100226.25;;;15.46;100.00
35224;BME280;21367;51.930;8.112;2022-09-09T02:05:30;100225.41;;;15.48;99.78
35224;BME280;21367;51.930;8.112;2022-09-09T02:10:42;100218.69;;;15.63;100.00
35224;BME280;21367;51.930;8.112;2022-09-09T02:16:06;100221.25;;;15.60;100.00
35224;BME280;21367;51.930;8.112;2022-09-09T02:21:12;100216.06;;;15.60;99.49
35224;BME280;21367;51.930;8.112;2022-09-09T02:26:17;100231.59;;;15.60;100.00
35224;BME280;21367;51.930;8.112;2022-09-09T02:31:32;100224.06;;;15.73;99.01
35224;BME280;21367;51.930;8.112;2022-09-09T02:36:43;100224.78;;;15.65;99.59
35224;BME280;21367;51.930;8.112;2022-09-09T02:41:49;100213.56;;;15.66;99.96
35224;BME280;21367;51.930;8.112;2022-09-09T02:47:16;100222.31;;;15.72;100.00
35224;BME280;21367;51.930;8.112;2022-09-09T02:52:32;100222.09;;;15.59;100.00
35224;BME280;21367;51.930;8.112;2022-09-09T02:57:41;100222.16;;;15.63;100.00
35224;BME280;21367;51.930;8.112;2022-09-09T03:02:51;100221.47;;;15.73;100.00
35224;BME280;21367;51.930;8.112;2022-09-09T03:07:56;100227.38;;;15.66;100.00
35224;BME280;21367;51.930;8.112;2022-09-09T03:13:00;100232.28;;;15.46;100.00
35224;BME280;21367;51.930;8.112;2022-09-09T03:18:10;100232.28;;;15.48;100.00
35224;BME280;21367;51.930;8.112;2022-09-09T03:23:14;100226.97;;;15.36;100.00
35224;BME280;21367;51.930;8.112;2022-09-09T03:28:19;100230.41;;;15.38;100.00
35224;BME280;21367;51.930;8.112;2022-09-09T03:33:27;100228.47;;;15.23;100.00
35224;BME280;21367;51.930;8.112;2022-09-09T03:38:32;100227.75;;;15.32;100.00
35224;BME280;21367;51.930;8.112;2022-09-09T03:43:36;100221.84;;;15.40;100.00
35224;BME280;21367;51.930;8.112;2022-09-09T03:48:42;100230.41;;;15.36;100.00
35224;BME280;21367;51.930;8.112;2022-09-09T03:53:46;100234.75;;;15.37;100.00
35224;BME280;21367;51.930;8.112;2022-09-09T03:58:50;100223.53;;;15.38;100.00
35224;BME280;21367;51.930;8.112;2022-09-09T04:03:58;100225.28;;;15.39;100.00
35224;BME280;21367;51.930;8.112;2022-09-09T04:09:03;100226.16;;;15.41;100.00
35224;BME280;21367;51.930;8.112;2022-09-09T04:14:08;100215.94;;;15.50;100.00
35224;BME280;21367;51.930;8.112;2022-09-09T04:19:16;100223.78;;;15.57;100.00
35224;BME280;21367;51.930;8.112;2022-09-09T04:24:20;100226.38;;;15.55;100.00
35224;BME280;21367;51.930;8.112;2022-09-09T04:29:25;100218.81;;;15.69;100.00
35224;BME280;21367;51.930;8.112;2022-09-09T04:34:31;100225.81;;;15.76;99.71
35224;BME280;21367;51.930;8.112;2022-09-09T04:39:35;100229.28;;;15.78;99.43
35224;BME280;21367;51.930;8.112;2022-09-09T04:44:40;100226.66;;;15.73;99.80
35224;BME280;21367;51.930;8.112;2022-09-09T04:49:47;100220.63;;;15.76;99.62
35224;BME280;21367;51.930;8.112;2022-09-09T04:54:52;100233.91;;;16.01;99.73
35224;BME280;21367;51.930;8.112;2022-09-09T04:59:55;100228.72;;;15.99;100.00
35224;BME280;21367;51.930;8.112;2022-09-09T05:05:06;100236.44;;;15.98;98.42
35224;BME280;21367;51.930;8.112;2022-09-09T05:10:12;100230.25;;;15.83;98.35
35224;BME280;21367;51.930;8.112;2022-09-09T05:15:18;100236.13;;;15.71;100.00
35224;BME280;21367;51.930;8.112;2022-09-09T05:20:24;100242.88;;;15.62;100.00
35224;BME280;21367;51.930;8.112;2022-09-09T05:25:28;100239.47;;;15.66;100.00
35224;BME280;21367;51.930;8.112;2022-09-09T05:30:32;100246.72;;;15.90;99.29
35224;BME280;21367;51.930;8.112;2022-09-09T05:35:41;100239.84;;;15.92;98.83
35224;BME280;21367;51.930;8.112;2022-09-09T05:40:47;100231.31;;;15.99;98.69
35224;BME280;21367;51.930;8.112;2022-09-09T05:46:00;100238.25;;;16.02;98.70
35224;BME280;21367;51.930;8.112;2022-09-09T05:51:09;100239.97;;;16.04;98.83
35224;BME280;21367;51.930;8.112;2022-09-09T05:56:15;100255.41;;;15.93;99.05
35224;BME280;21367;51.930;8.112;2022-09-09T06:01:20;100247.72;;;16.00;98.86
35224;BME280;21367;51.930;8.112;2022-09-09T06:06:30;100244.63;;;16.30;97.66
35224;BME280;21367;51.930;8.112;2022-09-09T06:11:39;100243.00;;;16.41;96.33
35224;BME280;21367;51.930;8.112;2022-09-09T06:16:43;100240.47;;;16.46;95.58
35224;BME280;21367;51.930;8.112;2022-09-09T06:21:55;100244.09;;;16.63;94.35
35224;BME280;21367;51.930;8.112;2022-09-09T06:26:59;100244.25;;;16.75;94.30
35224;BME280;21367;51.930;8.112;2022-09-09T06:32:07;100246.19;;;17.01;93.57
35224;BME280;21367;51.930;8.112;2022-09-09T06:37:14;100243.66;;;17.07;92.88
35224;BME280;21367;51.930;8.112;2022-09-09T06:42:22;100254.78;;;16.92;93.54
35224;BME280;21367;51.930;8.112;2022-09-09T06:47:37;100255.78;;;17.06;92.62
35224;BME280;21367;51.930;8.112;2022-09-09T06:52:45;100256.00;;;17.34;91.78
35224;BME280;21367;51.930;8.112;2022-09-09T06:57:49;100260.31;;;17.33;91.60
35224;BME280;21367;51.930;8.112;2022-09-09T07:02:57;100259.66;;;17.64;90.41
35224;BME280;21367;51.930;8.112;2022-09-09T07:08:04;100261.31;;;17.54;91.78
35224;BME280;21367;51.930;8.112;2022-09-09T07:13:08;100265.69;;;17.58;90.19
35224;BME280;21367;51.930;8.112;2022-09-09T07:18:12;100268.44;;;17.78;89.59
35224;BME280;21367;51.930;8.112;2022-09-09T07:23:19;100266.75;;;17.88;88.83
35224;BME280;21367;51.930;8.112;2022-09-09T07:28:24;100265.88;;;17.87;88.53
35224;BME280;21367;51.930;8.112;2022-09-09T07:33:30;100269.31;;;17.86;89.36
35224;BME280;21367;51.930;8.112;2022-09-09T07:38:41;100267.78;;;18.33;87.29
35224;BME280;21367;51.930;8.112;2022-09-09T07:43:47;100270.41;;;18.33;85.60
35224;BME280;21367;51.930;8.112;2022-09-09T07:48:53;100270.50;;;18.69;84.38
35224;BME280;21367;51.930;8.112;2022-09-09T07:54:05;100272.31;;;18.87;82.74
35224;BME280;21367;51.930;8.112;2022-09-09T07:59:11;100274.03;;;18.91;82.17
35224;BME280;21367;51.930;8.112;2022-09-09T08:04:18;100271.44;;;18.94;81.48
35224;BME280;21367;51.930;8.112;2022-09-09T08:09:27;100274.84;;;18.69;81.65
35224;BME280;21367;51.930;8.112;2022-09-09T08:14:39;100277.47;;;18.73;82.08
35224;BME280;21367;51.930;8.112;2022-09-09T08:19:43;100278.38;;;18.88;81.68
35224;BME280;21367;51.930;8.112;2022-09-09T08:24:54;100274.91;;;18.89;81.86
35224;BME280;21367;51.930;8.112;2022-09-09T08:29:58;100286.22;;;19.31;79.70
35224;BME280;21367;51.930;8.112;2022-09-09T08:35:05;100281.84;;;19.56;78.55
35224;BME280;21367;51.930;8.112;2022-09-09T08:40:20;100289.66;;;19.70;76.98
35224;BME280;21367;51.930;8.112;2022-09-09T08:45:33;100294.88;;;18.91;79.40
35224;BME280;21367;51.930;8.112;2022-09-09T08:50:41;100306.06;;;18.70;80.66
35224;BME280;21367;51.930;8.112;2022-09-09T08:55:55;100297.47;;;18.84;78.25
35224;BME280;21367;51.930;8.112;2022-09-09T09:07:15;100307.03;;;19.55;76.36
35224;BME280;21367;51.930;8.112;2022-09-09T09:12:26;100294.88;;;19.73;76.01
35224;BME280;21367;51.930;8.112;2022-09-09T09:17:31;100293.06;;;20.04;74.77
35224;BME280;21367;51.930;8.112;2022-09-09T09:22:45;100304.41;;;19.77;73.29
35224;BME280;21367;51.930;8.112;2022-09-09T09:27:58;100304.44;;;19.20;74.56
35224;BME280;21367;51.930;8.112;2022-09-09T09:33:15;100301.84;;;19.32;74.53
35224;BME280;21367;51.930;8.112;2022-09-09T09:38:24;100294.03;;;19.69;73.54
35224;BME280;21367;51.930;8.112;2022-09-09T09:43:35;100294.88;;;19.54;73.41
35224;BME280;21367;51.930;8.112;2022-09-09T09:48:44;100280.13;;;19.23;74.01
35224;BME280;21367;51.930;8.112;2022-09-09T09:53:48;100282.69;;;19.76;72.46
35224;BME280;21367;51.930;8.112;2022-09-09T09:58:57;100287.94;;;19.75;72.19
35224;BME280;21367;51.930;8.112;2022-09-09T10:04:15;100285.31;;;19.62;72.74
35224;BME280;21367;51.930;8.112;2022-09-09T10:09:23;100280.91;;;19.98;71.63
35224;BME280;21367;51.930;8.112;2022-09-09T10:14:35;100276.38;;;20.40;70.19
35224;BME280;21367;51.930;8.112;2022-09-09T10:19:53;100291.06;;;20.66;67.31
35224;BME280;21367;51.930;8.112;2022-09-09T10:25:17;100286.63;;;20.82;66.59
35224;BME280;21367;51.930;8.112;2022-09-09T10:30:30;100291.06;;;20.69;67.22
35224;BME280;21367;51.930;8.112;2022-09-09T10:35:44;100278.34;;;21.37;66.03
35224;BME280;21367;51.930;8.112;2022-09-09T10:41:05;100283.84;;;21.03;66.07
35224;BME280;21367;51.930;8.112;2022-09-09T10:46:18;100275.50;;;21.61;65.17
35224;BME280;21367;51.930;8.112;2022-09-09T10:51:33;100273.84;;;22.34;62.45
35224;BME280;21367;51.930;8.112;2022-09-09T10:56:42;100275.44;;;22.43;61.15
35224;BME280;21367;51.930;8.112;2022-09-09T11:01:53;100258.31;;;22.81;61.94
35224;BME280;21367;51.930;8.112;2022-09-09T11:07:02;100251.69;;;23.13;58.00
35224;BME280;21367;51.930;8.112;2022-09-09T11:12:12;100257.44;;;22.18;60.58
35224;BME280;21367;51.930;8.112;2022-09-09T11:17:24;100257.88;;;21.80;61.65
35224;BME280;21367;51.930;8.112;2022-09-09T11:22:32;100251.28;;;21.44;62.35
35224;BME280;21367;51.930;8.112;2022-09-09T11:27:41;100254.13;;;21.16;62.84
35224;BME280;21367;51.930;8.112;2022-09-09T11:33:13;100247.19;;;21.12;64.29
35224;BME280;21367;51.930;8.112;2022-09-09T11:38:25;100244.59;;;21.11;64.78
35224;BME280;21367;51.930;8.112;2022-09-09T11:43:32;100248.53;;;21.58;62.22
35224;BME280;21367;51.930;8.112;2022-09-09T11:48:41;100262.00;;;22.01;59.83
35224;BME280;21367;51.930;8.112;2022-09-09T11:53:51;100260.16;;;22.08;60.01
35224;BME280;21367;51.930;8.112;2022-09-09T11:58:57;100245.75;;;23.52;54.36
35224;BME280;21367;51.930;8.112;2022-09-09T12:04:17;100245.56;;;24.87;51.38
35224;BME280;21367;51.930;8.112;2022-09-09T12:09:32;100238.66;;;25.21;50.45
35224;BME280;21367;51.930;8.112;2022-09-09T12:14:43;100236.31;;;24.71;50.80
35224;BME280;21367;51.930;8.112;2022-09-09T12:20:00;100241.16;;;24.10;52.33
35224;BME280;21367;51.930;8.112;2022-09-09T12:25:18;100243.28;;;22.95;53.00
35224;BME280;21367;51.930;8.112;2022-09-09T12:30:29;100237.56;;;22.67;53.11
35224;BME280;21367;51.930;8.112;2022-09-09T12:35:37;100233.56;;;24.77;48.96
35224;BME280;21367;51.930;8.112;2022-09-09T12:40:42;100231.25;;;23.81;50.89
35224;BME280;21367;51.930;8.112;2022-09-09T12:45:49;100237.13;;;22.98;52.46
35224;BME280;21367;51.930;8.112;2022-09-09T12:51:01;100230.09;;;25.11;48.14
35224;BME280;21367;51.930;8.112;2022-09-09T12:56:08;100226.19;;;25.93;46.21
35224;BME280;21367;51.930;8.112;2022-09-09T13:01:20;100222.94;;;26.13;46.98
35224;BME280;21367;51.930;8.112;2022-09-09T13:06:28;100219.03;;;26.56;46.17
35224;BME280;21367;51.930;8.112;2022-09-09T13:11:36;100217.41;;;26.22;46.05
35224;BME280;21367;51.930;8.112;2022-09-09T13:16:40;100212.50;;;26.39;45.10
35224;BME280;21367;51.930;8.112;2022-09-09T13:21:46;100210.25;;;26.25;44.32
35224;BME280;21367;51.930;8.112;2022-09-09T13:26:55;100209.69;;;26.44;44.63
35224;BME280;21367;51.930;8.112;2022-09-09T13:32:15;100207.91;;;26.44;45.06
35224;BME280;21367;51.930;8.112;2022-09-09T13:37:27;100207.25;;;23.54;51.76
35224;BME280;21367;51.930;8.112;2022-09-09T13:42:38;100208.97;;;23.55;52.71
35224;BME280;21367;51.930;8.112;2022-09-09T13:47:43;100208.03;;;23.12;52.83
35224;BME280;21367;51.930;8.112;2022-09-09T13:52:52;100215.50;;;22.82;54.62
35224;BME280;21367;51.930;8.112;2022-09-09T13:58:00;100219.81;;;21.53;59.33
35224;BME280;21367;51.930;8.112;2022-09-09T14:03:05;100221.75;;;22.10;59.01
35224;BME280;21367;51.930;8.112;2022-09-09T14:08:16;100208.53;;;22.22;58.02
35224;BME280;21367;51.930;8.112;2022-09-09T14:13:23;100225.47;;;21.92;59.42
35224;BME280;21367;51.930;8.112;2022-09-09T14:18:27;100226.75;;;22.31;60.24
35224;BME280;21367;51.930;8.112;2022-09-09T14:23:33;100228.72;;;22.74;58.67
35224;BME280;21367;51.930;8.112;2022-09-09T14:28:38;100234.59;;;22.30;59.26
35224;BME280;21367;51.930;8.112;2022-09-09T14:33:45;100228.41;;;21.66;58.87
35224;BME280;21367;51.930;8.112;2022-09-09T14:38:54;100230.81;;;21.84;57.71
35224;BME280;21367;51.930;8.112;2022-09-09T14:43:58;100228.41;;;21.66;58.73
35224;BME280;21367;51.930;8.112;2022-09-09T14:49:02;100218.41;;;22.00;57.93
35224;BME280;21367;51.930;8.112;2022-09-09T14:54:08;100217.00;;;23.48;53.81
35224;BME280;21367;51.930;8.112;2022-09-09T14:59:11;100219.19;;;24.90;51.17
35224;BME280;21367;51.930;8.112;2022-09-09T15:04:15;100218.25;;;25.29;49.83
35224;BME280;21367;51.930;8.112;2022-09-09T15:09:22;100212.38;;;25.52;49.58
35224;BME280;21367;51.930;8.112;2022-09-09T15:14:26;100221.22;;;23.55;53.87
35224;BME280;21367;51.930;8.112;2022-09-09T15:19:29;100226.31;;;22.59;57.19
35224;BME280;21367;51.930;8.112;2022-09-09T15:24:36;100233.41;;;21.84;59.15
35224;BME280;21367;51.930;8.112;2022-09-09T15:29:40;100228.72;;;21.27;61.69
35224;BME280;21367;51.930;8.112;2022-09-09T15:34:44;100216.72;;;21.10;62.21
35224;BME280;21367;51.930;8.112;2022-09-09T15:39:51;100231.44;;;21.18;61.33
35224;BME280;21367;51.930;8.112;2022-09-09T15:44:55;100234.34;;;21.77;61.32
35224;BME280;21367;51.930;8.112;2022-09-09T15:49:59;100224.19;;;22.85;59.27
35224;BME280;21367;51.930;8.112;2022-09-09T15:55:09;100209.00;;;23.07;58.57
35224;BME280;21367;51.930;8.112;2022-09-09T16:00:14;100210.44;;;23.24;58.72
35224;BME280;21367;51.930;8.112;2022-09-09T16:05:18;100217.00;;;23.94;56.93
35224;BME280;21367;51.930;8.112;2022-09-09T16:10:25;100215.94;;;24.81;54.32
35224;BME280;21367;51.930;8.112;2022-09-09T16:15:28;100216.56;;;24.14;56.35
35224;BME280;21367;51.930;8.112;2022-09-09T16:20:32;100225.31;;;22.68;59.75
35224;BME280;21367;51.930;8.112;2022-09-09T16:25:38;100236.91;;;21.85;63.43
35224;BME280;21367;51.930;8.112;2022-09-09T16:30:42;100236.72;;;21.15;66.21
35224;BME280;21367;51.930;8.112;2022-09-09T16:35:48;100249.22;;;20.73;67.41
35224;BME280;21367;51.930;8.112;2022-09-09T16:41:01;100251.94;;;20.60;68.27
35224;BME280;21367;51.930;8.112;2022-09-09T16:46:12;100253.84;;;20.22;70.00
35224;BME280;21367;51.930;8.112;2022-09-09T16:51:18;100258.25;;;20.09;70.69
35224;BME280;21367;51.930;8.112;2022-09-09T16:56:29;100258.25;;;20.09;70.96
35224;BME280;21367;51.930;8.112;2022-09-09T17:01:35;100284.47;;;19.67;73.83
35224;BME280;21367;51.930;8.112;2022-09-09T17:06:41;100288.72;;;18.59;72.35
35224;BME280;21367;51.930;8.112;2022-09-09T17:11:48;100292.06;;;18.33;68.71
35224;BME280;21367;51.930;8.112;2022-09-09T17:16:53;100290.22;;;18.01;69.16
35224;BME280;21367;51.930;8.112;2022-09-09T17:21:58;100296.97;;;17.72;69.82
35224;BME280;21367;51.930;8.112;2022-09-09T17:27:04;100306.28;;;17.45;72.52
35224;BME280;21367;51.930;8.112;2022-09-09T17:32:08;100304.63;;;17.53;72.76
35224;BME280;21367;51.930;8.112;2022-09-09T17:37:12;100314.09;;;17.48;75.66
35224;BME280;21367;51.930;8.112;2022-09-09T17:42:19;100308.00;;;17.42;79.11
35224;BME280;21367;51.930;8.112;2022-09-09T17:47:22;100310.50;;;17.28;83.12
35224;BME280;21367;51.930;8.112;2022-09-09T17:52:26;100307.63;;;16.96;86.02
35224;BME280;21367;51.930;8.112;2022-09-09T17:57:34;100311.97;;;17.01;88.32
35224;BME280;21367;51.930;8.112;2022-09-09T18:02:37;100306.53;;;16.75;89.88
35224;BME280;21367;51.930;8.112;2022-09-09T18:07:41;100301.38;;;16.77;91.50
35224;BME280;21367;51.930;8.112;2022-09-09T18:12:47;100310.28;;;17.02;89.84
35224;BME280;21367;51.930;8.112;2022-09-09T18:17:52;100314.25;;;16.72;91.77
35224;BME280;21367;51.930;8.112;2022-09-09T18:22:55;100311.94;;;16.97;91.48
35224;BME280;21367;51.930;8.112;2022-09-09T18:28:02;100322.34;;;16.98;92.81
35224;BME280;21367;51.930;8.112;2022-09-09T18:33:06;100324.59;;;16.69;93.70
35224;BME280;21367;51.930;8.112;2022-09-09T18:38:10;100329.03;;;16.76;94.15
35224;BME280;21367;51.930;8.112;2022-09-09T18:43:16;100328.75;;;16.53;94.98
35224;BME280;21367;51.930;8.112;2022-09-09T18:48:20;100333.06;;;16.54;94.68
35224;BME280;21367;51.930;8.112;2022-09-09T18:53:23;100339.31;;;16.69;93.99
35224;BME280;21367;51.930;8.112;2022-09-09T18:58:31;100334.13;;;16.69;93.64
35224;BME280;21367;51.930;8.112;2022-09-09T19:03:35;100330.38;;;16.43;94.69
35224;BME280;21367;51.930;8.112;2022-09-09T19:08:40;100322.44;;;16.31;95.96
35224;BME280;21367;51.930;8.112;2022-09-09T19:13:52;100329.31;;;16.28;96.60
35224;BME280;21367;51.930;8.112;2022-09-09T19:18:57;100334.72;;;16.46;95.93
35224;BME280;21367;51.930;8.112;2022-09-09T19:24:04;100341.28;;;16.19;97.76
35224;BME280;21367;51.930;8.112;2022-09-09T19:29:12;100339.72;;;16.32;95.99
35224;BME280;21367;51.930;8.112;2022-09-09T19:34:17;100348.53;;;16.45;96.36
35224;BME280;21367;51.930;8.112;2022-09-09T19:39:21;100339.84;;;16.41;96.75
35224;BME280;21367;51.930;8.112;2022-09-09T19:44:27;100340.34;;;16.11;97.39
35224;BME280;21367;51.930;8.112;2022-09-09T19:49:31;100348.00;;;16.02;98.24
35224;BME280;21367;51.930;8.112;2022-09-09T19:54:36;100345.56;;;16.16;98.25
35224;BME280;21367;51.930;8.112;2022-09-09T19:59:43;100353.50;;;16.27;97.11
35224;BME280;21367;51.930;8.112;2022-09-09T20:04:47;100353.56;;;16.31;96.69
35224;BME280;21367;51.930;8.112;2022-09-09T20:09:51;100357.75;;;16.23;97.09
35224;BME280;21367;51.930;8.112;2022-09-09T20:14:57;100368.22;;;16.28;96.82
35224;BME280;21367;51.930;8.112;2022-09-09T20:20:01;100362.16;;;16.27;96.69
35224;BME280;21367;51.930;8.112;2022-09-09T20:25:06;100365.63;;;16.28;96.81
35224;BME280;21367;51.930;8.112;2022-09-09T20:30:13;100361.28;;;16.28;95.40
35224;BME280;21367;51.930;8.112;2022-09-09T20:35:17;100363.72;;;16.16;96.53
35224;BME280;21367;51.930;8.112;2022-09-09T20:40:21;100369.03;;;16.24;96.56
35224;BME280;21367;51.930;8.112;2022-09-09T20:45:27;100373.28;;;16.18;96.00
35224;BME280;21367;51.930;8.112;2022-09-09T20:50:34;100374.31;;;16.31;95.98
35224;BME280;21367;51.930;8.112;2022-09-09T20:55:39;100371.75;;;16.34;95.56
35224;BME280;21367;51.930;8.112;2022-09-09T21:00:45;100375.91;;;16.22;95.26
35224;BME280;21367;51.930;8.112;2022-09-09T21:05:49;100381.91;;;16.19;96.27
35224;BME280;21367;51.930;8.112;2022-09-09T21:10:53;100384.59;;;16.24;95.63
35224;BME280;21367;51.930;8.112;2022-09-09T21:16:00;100376.50;;;16.02;96.89
35224;BME280;21367;51.930;8.112;2022-09-09T21:21:03;100385.25;;;16.10;96.07
35224;BME280;21367;51.930;8.112;2022-09-09T21:26:08;100387.84;;;16.09;96.64
35224;BME280;21367;51.930;8.112;2022-09-09T21:31:16;100381.59;;;15.98;96.74
35224;BME280;21367;51.930;8.112;2022-09-09T21:36:20;100380.59;;;15.86;97.60
35224;BME280;21367;51.930;8.112;2022-09-09T21:41:24;100385.59;;;15.74;98.66
35224;BME280;21367;51.930;8.112;2022-09-09T21:46:30;100382.94;;;15.71;97.97
35224;BME280;21367;51.930;8.112;2022-09-09T21:51:34;100389.00;;;15.73;98.41
35224;BME280;21367;51.930;8.112;2022-09-09T21:56:38;100386.41;;;15.73;98.35
35224;BME280;21367;51.930;8.112;2022-09-09T22:01:45;100377.53;;;15.59;98.74
35224;BME280;21367;51.930;8.112;2022-09-09T22:06:48;100383.03;;;15.77;97.76
35224;BME280;21367;51.930;8.112;2022-09-09T22:11:52;100386.34;;;15.68;97.80
35224;BME280;21367;51.930;8.112;2022-09-09T22:16:58;100389.50;;;15.52;99.31
35224;BME280;21367;51.930;8.112;2022-09-09T22:22:02;100396.56;;;15.61;98.56
35224;BME280;21367;51.930;8.112;2022-09-09T22:27:06;100402.50;;;15.55;98.20
35224;BME280;21367;51.930;8.112;2022-09-09T22:32:12;100407.38;;;15.38;99.88
35224;BME280;21367;51.930;8.112;2022-09-09T22:37:16;100405.06;;;15.54;98.77
35224;BME280;21367;51.930;8.112;2022-09-09T22:42:20;100409.97;;;15.38;100.00
35224;BME280;21367;51.930;8.112;2022-09-09T22:47:26;100411.59;;;15.32;100.00
35224;BME280;21367;51.930;8.112;2022-09-09T22:52:30;100419.53;;;15.41;100.00
35224;BME280;21367;51.930;8.112;2022-09-09T22:57:33;100416.94;;;15.41;100.00
35224;BME280;21367;51.930;8.112;2022-09-09T23:02:40;100416.06;;;15.39;99.71
35224;BME280;21367;51.930;8.112;2022-09-09T23:07:43;100419.56;;;15.42;99.84
35224;BME280;21367;51.930;8.112;2022-09-09T23:12:47;100415.03;;;15.31;100.00
35224;BME280;21367;51.930;8.112;2022-09-09T23:17:53;100413.19;;;15.25;100.00
35224;BME280;21367;51.930;8.112;2022-09-09T23:22:57;100406.44;;;15.33;99.98
35224;BME280;21367;51.930;8.112;2022-09-09T23:28:01;100402.03;;;15.27;100.00
35224;BME280;21367;51.930;8.112;2022-09-09T23:33:08;100406.47;;;15.35;100.00
35224;BME280;21367;51.930;8.112;2022-09-09T23:38:11;100413.19;;;15.25;100.00
35224;BME280;21367;51.930;8.112;2022-09-09T23:43:15;100409.97;;;15.38;100.00
35224;BME280;21367;51.930;8.112;2022-09-09T23:48:24;100417.69;;;15.35;100.00
35224;BME280;21367;51.930;8.112;2022-09-09T23:53:29;100404.94;;;15.46;99.17
35224;BME280;21367;51.930;8.112;2022-09-09T23:58:33;100412.81;;;15.52;99.04
